Time;durP1;ratioP1;P1;durP2;ratioP2;P2;SDS_P1;SDS_P2;PMS_P1;PMS_P2;Temp;Humidity;BMP_temperature;BMP_pressure;BME280_temperature;BME280_humidity;BME280_pressure;Samples;Min_cycle;Max_cycle;Signal;HPM_P1;HPM_P2
2022/07/13 00:01:45;;;;;;;4.57;1.30;;;19.70;95.20;;;20.63;84.24;98843.31;4929918;29;20498;-80
2022/07/13 00:04:15;;;;;;;1.50;1.20;;;19.70;95.40;;;20.61;84.52;98842.75;4929115;29;20477;-80
2022/07/13 00:06:45;;;;;;;2.47;1.50;;;19.60;95.50;;;20.58;84.46;98842.16;4930111;29;20470;-80
2022/07/13 00:09:14;;;;;;;1.43;1.33;;;19.60;95.40;;;20.54;84.56;98838.34;4930651;29;20553;-80
2022/07/13 00:11:43;;;;;;;2.07;1.47;;;19.60;95.60;;;20.53;84.44;98841.22;4928986;29;20486;-80
2022/07/13 00:14:13;;;;;;;1.53;1.23;;;19.50;95.40;;;20.45;84.61;98839.72;4929197;29;20512;-80
2022/07/13 00:16:45;;;;;;;1.47;1.30;;;19.50;95.20;;;20.38;85.19;98841.69;4927819;29;20475;-80
2022/07/13 00:19:15;;;;;;;2.87;1.30;;;19.30;95.40;;;20.37;85.33;98832.13;4929152;29;20498;-80
2022/07/13 00:21:45;;;;;;;2.43;1.30;;;19.40;95.50;;;20.34;85.63;98837.09;4928431;29;20463;-80
2022/07/13 00:24:15;;;;;;;1.60;1.37;;;19.50;95.30;;;20.29;85.94;98845.72;4927260;29;20535;-80
2022/07/13 00:26:45;;;;;;;1.43;1.33;;;19.40;95.70;;;20.21;86.23;98831.94;4927885;29;20466;-80
2022/07/13 00:29:16;;;;;;;1.60;1.20;;;19.30;95.40;;;20.15;86.41;98838.16;4929277;29;21015;-80
2022/07/13 00:31:47;;;;;;;1.90;1.30;;;19.30;95.50;;;20.07;86.80;98831.34;4929350;29;20954;-80
2022/07/13 00:34:18;;;;;;;1.77;1.53;;;19.20;95.50;;;20.01;87.43;98833.06;4926791;29;20602;-80
2022/07/13 00:36:48;;;;;;;3.07;1.73;;;19.10;95.80;;;19.93;87.76;98832.56;4927160;29;20469;-80
2022/07/13 00:39:17;;;;;;;2.83;1.43;;;18.90;96.00;;;19.91;87.85;98834.66;4925931;29;20474;-80
2022/07/13 00:41:48;;;;;;;1.40;1.30;;;18.90;96.00;;;19.87;88.07;98828.19;4927015;29;20477;-80
2022/07/13 00:44:19;;;;;;;2.47;1.33;;;19.00;95.70;;;19.82;88.28;98828.84;4928824;29;20467;-80
2022/07/13 00:46:55;;;;;;;2.17;1.30;;;18.90;95.80;;;19.78;88.48;98827.72;4927148;29;20490;-80
2022/07/13 00:49:25;;;;;;;1.70;1.33;;;18.90;95.90;;;19.72;88.59;98823.28;4928167;29;20977;-80
2022/07/13 00:51:56;;;;;;;1.60;1.40;;;18.80;96.10;;;19.71;88.91;98815.56;4924743;29;20989;-80
2022/07/13 00:54:28;;;;;;;1.70;1.33;;;18.70;96.20;;;19.70;88.78;98808.63;4929666;29;20503;-80
2022/07/13 00:57:00;;;;;;;2.30;1.50;;;18.80;95.90;;;19.66;89.14;98808.28;4931603;29;20462;-80
2022/07/13 00:59:31;;;;;;;1.80;1.47;;;18.80;95.80;;;19.61;89.31;98815.31;4929804;29;20966;-80
2022/07/13 01:02:00;;;;;;;1.93;1.30;;;18.70;96.20;;;19.59;89.29;98810.22;4925906;29;20468;-80
2022/07/13 01:04:31;;;;;;;2.60;1.57;;;18.70;96.10;;;19.52;89.96;98818.28;4931089;29;20498;-80
2022/07/13 01:07:02;;;;;;;1.60;1.47;;;18.60;96.40;;;19.50;90.10;98820.34;4927066;29;20474;-80
2022/07/13 01:09:33;;;;;;;1.40;1.10;;;18.50;96.40;;;19.50;89.94;98812.38;4930170;29;20978;-80
2022/07/13 01:12:02;;;;;;;1.70;1.30;;;18.50;96.30;;;19.51;90.01;98811.34;4929197;29;20514;-80
2022/07/13 01:14:33;;;;;;;4.13;1.37;;;18.50;96.40;;;19.49;90.17;98807.28;4929412;29;20506;-80
2022/07/13 01:17:04;;;;;;;2.10;1.50;;;18.50;96.50;;;19.47;90.63;98815.47;4927883;29;20466;-80
2022/07/13 01:19:36;;;;;;;1.70;1.40;;;18.50;96.40;;;19.46;90.79;98807.75;4929696;29;20466;-80
2022/07/13 01:22:09;;;;;;;1.57;1.30;;;18.50;96.40;;;19.44;90.92;98810.63;4926950;29;20470;-80
2022/07/13 01:24:40;;;;;;;1.50;1.30;;;18.50;96.40;;;19.42;91.06;98803.91;4928447;29;20463;-80
2022/07/13 01:27:11;;;;;;;9.20;1.50;;;18.50;96.70;;;19.41;91.41;98808.41;4927232;29;20454;-80
2022/07/13 01:29:42;;;;;;;1.60;1.30;;;18.40;96.80;;;19.41;91.54;98800.47;4926834;29;20476;-80
2022/07/13 01:32:13;;;;;;;1.57;1.10;;;18.40;96.80;;;19.42;91.76;98809.22;4927000;29;20474;-80
2022/07/13 01:34:49;;;;;;;2.00;1.50;;;18.40;96.90;;;19.42;91.76;98804.72;4929375;29;20652;-80
2022/07/13 01:37:19;;;;;;;1.40;1.20;;;18.40;96.90;;;19.40;91.85;98804.09;4929175;29;20737;-80
2022/07/13 01:39:50;;;;;;;3.83;1.60;;;18.40;96.80;;;19.39;92.01;98802.50;4926234;29;20466;-80
2022/07/13 01:42:21;;;;;;;1.73;1.50;;;18.40;96.80;;;19.37;92.18;98801.91;4925676;29;20989;-80
2022/07/13 01:44:52;;;;;;;2.03;1.30;;;18.40;96.90;;;19.34;92.55;98799.69;4927443;29;24740;-80
2022/07/13 01:47:23;;;;;;;2.20;1.70;;;18.30;97.10;;;19.33;92.84;98786.69;4928252;29;20549;-80
2022/07/13 01:49:52;;;;;;;2.40;1.27;;;18.30;97.20;;;19.32;93.00;98783.22;4925853;29;20494;-80
2022/07/13 01:52:22;;;;;;;4.80;1.87;;;18.30;97.10;;;19.32;93.03;98785.06;4925895;29;20521;-80
2022/07/13 01:54:52;;;;;;;1.80;1.50;;;18.30;97.10;;;19.31;93.31;98788.72;4927548;29;20491;-80
2022/07/13 01:57:23;;;;;;;1.83;1.50;;;18.20;97.10;;;19.29;93.66;98786.31;4930208;29;20474;-80
2022/07/13 01:59:52;;;;;;;1.90;1.60;;;18.20;97.20;;;19.29;94.06;98780.19;4929122;29;20467;-80
2022/07/13 02:02:23;;;;;;;1.60;1.10;;;18.20;97.40;;;19.28;94.01;98783.88;4930372;29;21000;-80
2022/07/13 02:04:55;;;;;;;1.40;1.30;;;18.20;97.20;;;19.28;93.96;98779.38;4928435;29;20667;-80
2022/07/13 02:07:25;;;;;;;2.13;1.30;;;18.20;97.30;;;19.29;93.87;98788.97;4925615;29;20553;-80
2022/07/13 02:09:56;;;;;;;1.60;1.40;;;18.20;97.30;;;19.28;93.98;98779.38;4930357;29;20470;-80
2022/07/13 02:12:27;;;;;;;1.40;1.30;;;18.20;97.30;;;19.27;94.01;98777.75;4928644;29;20526;-80
2022/07/13 02:14:57;;;;;;;1.57;1.47;;;18.20;97.40;;;19.22;94.15;98782.13;4928001;29;20493;-80
2022/07/13 02:17:27;;;;;;;1.80;1.53;;;18.30;97.10;;;19.21;94.60;98777.84;4928569;29;20514;-79
2022/07/13 02:19:57;;;;;;;2.30;1.90;;;18.20;97.30;;;19.20;94.40;98782.34;4928544;29;20462;-80
2022/07/13 02:22:28;;;;;;;1.50;1.30;;;18.20;97.20;;;19.17;94.38;98781.97;4925316;29;20538;-80
2022/07/13 02:25:02;;;;;;;1.40;1.30;;;18.20;97.20;;;19.13;94.74;98780.81;4926477;29;20495;-80
2022/07/13 02:27:31;;;;;;;3.83;1.50;;;18.20;97.30;;;19.09;94.81;98775.13;4925513;29;20549;-80
2022/07/13 02:30:02;;;;;;;2.30;1.60;;;18.10;97.40;;;19.09;95.32;98765.34;4926749;29;20495;-80
2022/07/13 02:32:32;;;;;;;2.10;1.40;;;18.00;97.50;;;19.08;94.98;98765.59;4926961;29;20466;-80
2022/07/13 02:35:01;;;;;;;1.80;1.57;;;18.10;97.50;;;19.01;95.34;98760.38;4924195;29;20509;-80
2022/07/13 02:37:40;;;;;;;1.53;1.23;;;18.00;97.50;;;18.98;95.90;98755.50;4926036;29;21146;-80
2022/07/13 02:40:13;;;;;;;3.20;1.57;;;17.90;97.60;;;18.94;95.86;98754.34;4925229;29;20466;-81
2022/07/13 02:42:48;;;;;;;1.97;1.50;;;17.90;97.50;;;18.91;96.67;98748.66;4926164;29;20480;-80
2022/07/13 02:45:17;;;;;;;1.20;1.00;;;17.90;97.70;;;18.87;96.45;98743.00;4924273;29;20471;-80
2022/07/13 02:47:47;;;;;;;15.27;2.13;;;17.80;97.70;;;18.80;96.51;98744.94;4927537;29;20470;-80
2022/07/13 02:50:16;;;;;;;12.10;2.00;;;17.80;97.70;;;18.75;97.20;98751.91;4926526;29;20466;-80
2022/07/13 02:52:46;;;;;;;5.03;1.53;;;17.70;97.60;;;18.73;97.37;98748.69;4928270;29;20838;-80
2022/07/13 02:55:17;;;;;;;7.13;1.90;;;17.70;97.90;;;18.70;97.63;98747.28;4929611;29;20502;-80
2022/07/13 02:57:47;;;;;;;1.60;1.40;;;17.70;97.80;;;18.69;97.54;98747.50;4925578;29;20474;-80
2022/07/13 03:00:18;;;;;;;4.40;1.80;;;17.60;97.80;;;18.65;97.64;98741.03;4927778;29;20474;-80
2022/07/13 03:02:47;;;;;;;2.10;1.50;;;17.60;97.80;;;18.61;97.71;98751.25;4925448;29;20501;-80
2022/07/13 03:05:18;;;;;;;2.57;1.70;;;17.60;97.80;;;18.56;97.87;98757.22;4925027;29;20471;-80
2022/07/13 03:07:47;;;;;;;1.90;1.40;;;17.60;97.70;;;18.54;98.40;98756.63;4927544;29;20984;-80
2022/07/13 03:10:19;;;;;;;1.93;1.40;;;17.50;97.90;;;18.50;98.79;98755.44;4931691;29;20836;-90
2022/07/13 03:12:48;;;;;;;3.13;1.80;;;17.50;98.00;;;18.48;99.18;98741.59;4932908;29;21099;-80
2022/07/13 03:15:18;;;;;;;2.90;1.60;;;17.50;98.10;;;18.46;99.75;98732.25;4927782;29;20509;-80
2022/07/13 03:17:47;;;;;;;3.60;1.90;;;17.50;98.10;;;18.46;99.61;98737.53;4928631;29;20474;-81
2022/07/13 03:20:19;;;;;;;34.20;17.23;;;17.50;98.10;;;18.50;99.93;98736.91;4932341;29;20458;-90
2022/07/13 03:22:49;;;;;;;50.77;24.63;;;17.50;98.30;;;18.51;100.00;98735.88;4932074;29;20486;-80
2022/07/13 03:25:21;;;;;;;5.30;2.53;;;17.50;98.30;;;18.53;99.74;98733.81;4930569;29;20467;-80
2022/07/13 03:27:51;;;;;;;2.90;1.50;;;17.50;98.20;;;18.52;99.82;98734.84;4931532;28;20465;-80
2022/07/13 03:30:22;;;;;;;31.00;2.17;;;17.50;98.30;;;18.50;99.77;98734.25;4931771;29;20537;-80
2022/07/13 03:32:54;;;;;;;2.40;1.73;;;17.50;98.30;;;18.49;99.86;98729.97;4930608;29;20481;-80
2022/07/13 03:35:26;;;;;;;2.53;1.90;;;17.50;98.10;;;18.51;100.00;98730.56;4932237;29;20573;-80
2022/07/13 03:37:55;;;;;;;2.60;2.00;;;17.50;98.20;;;18.49;100.00;98729.16;4932613;29;20470;-87
2022/07/13 03:40:26;;;;;;;1.73;1.63;;;17.40;98.50;;;18.51;100.00;98730.56;4927821;29;20493;-80
2022/07/13 03:42:55;;;;;;;3.90;1.80;;;17.50;98.40;;;18.53;100.00;98733.03;4930682;29;20525;-80
2022/07/13 03:45:25;;;;;;;2.10;1.37;;;17.50;98.50;;;18.53;100.00;98731.16;4931636;29;20435;-80
2022/07/13 03:47:55;;;;;;;2.67;1.53;;;17.50;98.40;;;18.53;100.00;98733.03;4931852;29;20485;-80
2022/07/13 03:50:24;;;;;;;2.03;1.40;;;17.50;98.40;;;18.53;100.00;98733.81;4930106;29;20981;-80
2022/07/13 03:52:54;;;;;;;2.40;1.90;;;17.50;98.50;;;18.54;100.00;98739.91;4931385;29;20458;-80
2022/07/13 03:55:27;;;;;;;7.23;1.30;;;17.50;98.40;;;18.53;100.00;98736.44;4928606;29;20474;-80
2022/07/13 03:57:56;;;;;;;3.40;1.73;;;17.50;98.40;;;18.53;100.00;98739.09;4936722;29;20893;-83
2022/07/13 04:00:26;;;;;;;2.70;2.10;;;17.50;98.30;;;18.56;100.00;98743.16;4929411;29;20474;-80
2022/07/13 04:02:55;;;;;;;4.67;1.30;;;17.50;98.40;;;18.56;100.00;98741.34;4930269;29;20470;-80
2022/07/13 04:05:26;;;;;;;11.03;1.97;;;17.50;98.30;;;18.54;100.00;98746.03;4933591;29;21147;-88
2022/07/13 04:07:56;;;;;;;1.53;1.43;;;17.50;98.30;;;18.54;100.00;98734.63;4930342;29;20469;-80
2022/07/13 04:10:27;;;;;;;2.47;1.53;;;17.50;98.20;;;18.51;100.00;98730.56;4929050;29;20479;-80
2022/07/13 04:12:58;;;;;;;6.07;1.57;;;17.60;98.30;;;18.51;100.00;98729.75;4930713;29;20467;-78
2022/07/13 04:15:35;;;;;;;4.23;1.83;;;17.50;98.30;;;18.47;100.00;98729.38;4931317;29;20549;-79
2022/07/13 04:18:06;;;;;;;2.53;2.33;;;17.50;98.60;;;18.46;100.00;98725.13;4929856;29;21054;-79
2022/07/13 04:20:36;;;;;;;3.30;1.43;;;17.40;98.60;;;18.49;100.00;98734.44;4929888;29;20466;-79
2022/07/13 04:23:07;;;;;;;1.67;1.53;;;17.50;98.60;;;18.50;100.00;98728.94;4928440;29;20466;-79
2022/07/13 04:25:39;;;;;;;2.10;1.47;;;17.50;98.50;;;18.51;100.00;98730.56;4931212;29;21004;-79
2022/07/13 04:28:10;;;;;;;5.43;1.53;;;17.50;98.60;;;18.51;100.00;98738.53;4931274;29;20545;-79
2022/07/13 04:30:40;;;;;;;1.57;1.40;;;17.50;98.60;;;18.52;100.00;98742.81;4932676;29;20554;-79
2022/07/13 04:33:09;;;;;;;1.67;1.40;;;17.50;98.60;;;18.53;100.00;98744.41;4932313;29;20471;-79
2022/07/13 04:35:40;;;;;;;1.33;1.23;;;17.50;98.70;;;18.53;100.00;98738.31;4931580;29;20513;-79
2022/07/13 04:38:09;;;;;;;4.93;1.97;;;17.50;98.70;;;18.55;100.00;98742.34;4932342;29;20455;-79
2022/07/13 04:40:39;;;;;;;2.30;1.60;;;17.50;98.70;;;18.57;100.00;98737.63;4930722;29;20957;-79
2022/07/13 04:43:09;;;;;;;8.87;1.50;;;17.60;98.80;;;18.56;100.00;98741.34;4932631;29;20470;-78
2022/07/13 04:45:38;;;;;;;3.00;1.67;;;17.60;98.70;;;18.57;100.00;98739.47;4933169;29;20454;-79
2022/07/13 04:48:08;;;;;;;2.03;1.40;;;17.60;98.70;;;18.58;100.00;98739.25;4931470;29;20965;-79
2022/07/13 04:50:37;;;;;;;1.50;1.30;;;17.60;98.70;;;18.60;100.00;98734.53;4932460;29;20517;-79
2022/07/13 04:53:06;;;;;;;1.70;1.60;;;17.60;98.80;;;18.63;100.00;98733.31;4931577;29;20451;-79
2022/07/13 04:55:40;;;;;;;2.00;1.80;;;17.50;99.00;;;18.66;100.00;98734.69;4933325;29;20494;-79
2022/07/13 04:58:10;;;;;;;2.90;1.33;;;17.60;98.90;;;18.66;100.00;98732.06;4931478;29;21009;-79
2022/07/13 05:00:40;;;;;;;3.50;2.07;;;17.60;98.70;;;18.69;100.00;98735.06;4932668;29;20466;-79
2022/07/13 05:03:29;;;;;;;2.30;1.50;;;17.70;98.50;;;18.74;100.00;98734.41;4931880;29;20549;-79
2022/07/13 05:05:58;;;;;;;3.40;1.90;;;17.70;98.50;;;18.77;100.00;98733.97;4931890;29;20455;-79
2022/07/13 05:08:28;;;;;;;2.63;1.60;;;17.80;98.30;;;18.80;100.00;98741.47;4929612;29;20470;-79
2022/07/13 05:10:59;;;;;;;1.33;1.20;;;17.80;98.20;;;18.81;100.00;98740.44;4930981;29;20550;-79
2022/07/13 05:13:29;;;;;;;2.53;1.60;;;17.80;98.50;;;18.84;100.00;98740.81;4930058;29;20482;-79
2022/07/13 05:16:03;;;;;;;1.77;1.53;;;17.90;98.60;;;18.87;100.00;98744.84;4932214;29;20493;-79
2022/07/13 05:18:34;;;;;;;1.97;1.37;;;17.90;98.50;;;18.89;100.00;98743.56;4932320;29;20446;-79
2022/07/13 05:21:04;;;;;;;1.87;1.60;;;17.90;98.40;;;18.92;100.00;98735.19;4930213;29;21121;-79
2022/07/13 05:23:34;;;;;;;1.60;1.30;;;18.00;98.30;;;18.93;100.00;98736.00;4931563;29;20791;-79
2022/07/13 05:26:06;;;;;;;1.87;1.57;;;17.90;98.30;;;18.98;99.71;98736.97;4929515;29;20510;-79
2022/07/13 05:28:35;;;;;;;1.53;1.27;;;17.90;98.20;;;19.01;99.25;98741.00;4930647;29;20463;-79
2022/07/13 05:31:05;;;;;;;15.00;1.50;;;18.00;98.30;;;19.03;99.32;98731.78;4930561;29;20458;-79
2022/07/13 05:33:35;;;;;;;1.90;1.57;;;18.00;98.30;;;19.06;99.34;98730.50;4928958;29;20950;-79
2022/07/13 05:36:10;;;;;;;3.70;1.40;;;18.00;98.60;;;19.09;99.22;98736.19;4929758;29;20498;-79
2022/07/13 05:38:39;;;;;;;4.50;1.87;;;18.00;98.30;;;19.13;99.10;98736.53;4929267;29;20469;-79
2022/07/13 05:41:12;;;;;;;7.23;1.83;;;18.10;98.30;;;19.18;98.83;98728.72;4930030;29;20801;-79
2022/07/13 05:43:42;;;;;;;3.27;2.17;;;18.20;98.20;;;19.22;98.96;98737.84;4930288;29;21771;-80
2022/07/13 05:46:12;;;;;;;1.73;1.40;;;18.20;98.20;;;19.26;98.99;98736.38;4931296;29;20457;-79
2022/07/13 05:48:42;;;;;;;2.63;1.50;;;18.30;98.40;;;19.28;99.39;98736.94;4931854;29;20447;-80
2022/07/13 05:51:12;;;;;;;1.60;1.50;;;18.40;98.30;;;19.31;99.39;98736.50;4929940;29;20471;-79
2022/07/13 05:54:02;;;;;;;2.17;1.57;;;18.40;98.30;;;19.35;99.09;98735.00;4931164;29;20965;-79
2022/07/13 05:56:54;;;;;;;2.07;1.63;;;18.40;98.30;;;19.41;98.72;98726.19;4930044;29;20970;-79
2022/07/13 05:59:25;;;;;;;2.40;1.50;;;18.40;98.10;;;19.46;98.37;98734.28;4931353;29;20456;-79
2022/07/13 06:01:54;;;;;;;2.20;1.63;;;18.50;98.00;;;19.51;97.39;98736.22;4930691;29;20470;-79
2022/07/13 06:04:24;;;;;;;2.40;1.63;;;18.60;97.80;;;19.54;96.91;98725.97;4929266;29;20462;-79
2022/07/13 06:06:54;;;;;;;6.93;1.70;;;18.60;97.70;;;19.59;96.14;98723.44;4930358;29;20498;-79
2022/07/13 06:09:23;;;;;;;1.77;1.40;;;18.70;97.70;;;19.63;96.63;98725.66;4930884;28;20486;-79
2022/07/13 06:11:54;;;;;;;4.13;1.90;;;18.70;97.90;;;19.68;96.79;98725.78;4930362;29;20549;-79
2022/07/13 06:14:24;;;;;;;2.67;1.30;;;18.70;98.00;;;19.72;97.42;98713.66;4928820;29;20549;-79
2022/07/13 06:16:53;;;;;;;1.70;1.30;;;18.80;98.20;;;19.77;97.85;98719.09;4929860;29;20538;-79
2022/07/13 06:19:25;;;;;;;3.10;1.87;;;18.80;98.50;;;19.82;98.49;98704.09;4930917;29;20459;-79
2022/07/13 06:21:56;;;;;;;1.60;1.50;;;18.80;98.30;;;19.88;98.39;98710.34;4929500;29;20783;-79
2022/07/13 06:24:25;;;;;;;2.10;1.60;;;18.90;98.40;;;19.95;97.33;98711.03;4931274;29;20462;-79
2022/07/13 06:26:56;;;;;;;1.33;1.23;;;19.00;98.10;;;20.00;95.80;98709.28;4929494;29;20526;-79
2022/07/13 06:29:27;;;;;;;1.90;1.50;;;19.10;97.60;;;20.07;94.53;98712.63;4931326;29;20501;-79
2022/07/13 06:31:56;;;;;;;1.40;1.30;;;19.20;97.30;;;20.14;94.62;98715.19;4930551;29;20459;-78
2022/07/13 06:34:26;;;;;;;3.80;1.70;;;19.20;97.70;;;20.20;94.42;98698.31;4930997;29;20451;-78
2022/07/13 06:36:55;;;;;;;3.10;1.60;;;19.30;97.60;;;20.25;94.61;98695.78;4929624;29;20508;-79
2022/07/13 06:39:25;;;;;;;1.50;1.40;;;19.30;97.80;;;20.31;94.59;98697.53;4930573;29;20498;-79
2022/07/13 06:41:57;;;;;;;2.07;1.60;;;19.30;98.00;;;20.38;95.48;98705.38;4931600;29;20477;-78
2022/07/13 06:44:28;;;;;;;2.57;1.93;;;19.50;97.90;;;20.44;95.35;98702.56;4934928;29;20892;-78
2022/07/13 06:46:59;;;;;;;3.03;1.50;;;19.50;97.70;;;20.50;94.89;98699.00;4933846;29;20458;-78
2022/07/13 06:49:29;;;;;;;3.73;1.60;;;19.60;97.70;;;20.57;94.81;98704.19;4934748;29;20443;-78
2022/07/13 06:51:59;;;;;;;2.17;1.83;;;19.70;97.80;;;20.64;94.71;98704.06;4933118;29;20462;-78
2022/07/13 06:54:29;;;;;;;1.50;1.40;;;19.80;97.70;;;20.70;94.43;98701.25;4934691;29;20447;-79
2022/07/13 06:57:00;;;;;;;5.23;1.40;;;19.80;97.60;;;20.78;93.86;98706.22;4931598;29;20499;-79
2022/07/13 06:59:31;;;;;;;2.20;1.37;;;19.90;97.60;;;20.86;93.52;98708.47;4934003;29;20508;-78
2022/07/13 07:02:02;;;;;;;1.80;1.43;;;20.00;97.50;;;20.95;92.88;98700.94;4934540;29;20462;-78
2022/07/13 07:04:34;;;;;;;2.43;1.50;;;20.00;97.30;;;21.04;92.43;98697.66;4933691;29;20800;-78
2022/07/13 07:07:09;;;;;;;1.97;1.67;;;20.10;97.20;;;21.15;91.81;98693.38;4934771;29;20962;-78
2022/07/13 07:09:39;;;;;;;10.43;1.60;;;20.30;97.20;;;21.28;90.87;98698.38;4933516;29;20476;-78
2022/07/13 07:12:11;;;;;;;6.93;1.73;;;20.40;97.10;;;21.36;90.41;98690.00;4933566;29;20465;-78
2022/07/13 07:14:41;;;;;;;1.47;1.33;;;20.60;96.90;;;21.46;89.92;98687.53;4934613;29;20529;-78
2022/07/13 07:17:11;;;;;;;3.93;1.73;;;20.70;96.90;;;21.56;89.73;98690.34;4933481;29;20541;-78
2022/07/13 07:19:41;;;;;;;6.60;1.80;;;20.70;96.80;;;21.65;89.54;98692.63;4932790;29;20860;-78
2022/07/13 07:22:12;;;;;;;6.17;2.13;;;20.80;97.00;;;21.74;89.06;98683.97;4934295;29;20941;-78
2022/07/13 07:24:41;;;;;;;2.30;1.90;;;20.90;96.60;;;21.85;89.01;98682.28;4932453;29;20474;-78
2022/07/13 07:27:12;;;;;;;4.40;2.00;;;21.00;96.60;;;21.94;88.48;98684.31;4933497;29;20877;-78
2022/07/13 07:29:42;;;;;;;5.37;1.50;;;21.10;96.50;;;22.01;88.57;98686.81;4931448;29;20601;-78
2022/07/13 07:32:12;;;;;;;8.90;1.30;;;21.20;96.80;;;22.08;88.46;98687.44;4933569;29;20470;-79
2022/07/13 07:34:42;;;;;;;7.80;1.50;;;21.20;96.80;;;22.15;88.21;98682.75;4934092;29;20485;-78
2022/07/13 07:37:12;;;;;;;3.83;1.50;;;21.30;96.70;;;22.23;88.13;98689.50;4933253;29;20490;-78
2022/07/13 07:39:43;;;;;;;7.63;1.70;;;21.40;96.80;;;22.29;88.21;98686.66;4931093;29;20494;-78
2022/07/13 07:42:14;;;;;;;2.47;1.90;;;21.50;96.70;;;22.37;87.86;98682.78;4931444;29;20553;-78
2022/07/13 07:44:44;;;;;;;4.57;1.40;;;21.60;96.70;;;22.42;88.26;98685.50;4932763;29;20466;-78
2022/07/13 07:47:15;;;;;;;1.47;1.37;;;21.70;97.10;;;22.52;88.43;98675.78;4933340;29;20466;-78
2022/07/13 07:49:45;;;;;;;7.37;1.70;;;21.70;97.00;;;22.62;87.73;98690.28;4933066;29;20451;-78
2022/07/13 07:52:15;;;;;;;8.03;1.60;;;21.90;96.60;;;22.72;86.74;98679.75;4931953;29;20470;-78
2022/07/13 07:55:07;;;;;;;5.60;1.50;;;22.00;96.30;;;22.85;85.97;98682.03;4931533;29;20451;-78
2022/07/13 07:57:47;;;;;;;3.93;1.47;;;22.10;96.20;;;22.94;85.48;98680.56;4933804;29;20544;-78
2022/07/13 08:00:19;;;;;;;2.87;1.50;;;22.20;96.30;;;23.04;85.46;98683.31;4933274;29;20450;-78
2022/07/13 08:02:48;;;;;;;7.63;1.70;;;22.30;96.60;;;23.15;84.43;98686.91;4932998;29;20463;-78
2022/07/13 08:05:18;;;;;;;3.50;1.87;;;22.50;96.00;;;23.23;84.20;98676.56;4933619;29;20459;-79
2022/07/13 08:07:49;;;;;;;2.70;1.17;;;22.60;96.00;;;23.32;83.31;98683.06;4934342;29;20793;-78
2022/07/13 08:10:18;;;;;;;1.50;1.13;;;22.70;95.80;;;23.41;80.13;98678.91;4933103;29;20907;-79
2022/07/13 08:13:00;;;;;;;3.90;1.60;;;22.80;95.10;;;23.53;76.36;98676.84;4932754;29;20447;-78
2022/07/13 08:15:31;;;;;;;2.40;1.50;;;22.90;94.00;;;23.64;76.00;98674.28;4931465;29;20467;-78
2022/07/13 08:18:02;;;;;;;1.60;1.30;;;23.10;94.20;;;23.77;76.29;98671.16;4932851;29;20486;-79
2022/07/13 08:20:31;;;;;;;1.60;1.30;;;23.20;94.20;;;23.89;74.66;98669.91;4931547;29;20465;-79
2022/07/13 08:23:01;;;;;;;1.20;1.00;;;23.20;93.60;;;23.98;70.98;98670.25;4933145;29;20881;-79
2022/07/13 08:25:32;;;;;;;1.57;1.20;;;23.30;92.50;;;24.07;66.56;98660.66;4932792;29;20451;-78
2022/07/13 08:28:03;;;;;;;1.20;1.00;;;23.50;91.70;;;24.18;64.91;98659.69;4932011;29;20562;-79
2022/07/13 08:30:37;;;;;;;1.30;1.00;;;23.60;91.70;;;24.28;61.06;98650.91;4933227;29;20443;-79
2022/07/13 08:33:07;;;;;;;1.77;1.10;;;23.70;90.50;;;24.37;61.96;98650.16;4932471;29;20833;-79
2022/07/13 08:38:37;;;;;;;3.00;1.17;;;23.90;90.40;;;24.55;57.34;98655.03;4930665;29;21049;-79
2022/07/13 08:41:08;;;;;;;1.50;1.20;;;24.00;88.80;;;24.64;57.92;98651.88;4930643;29;20524;-78
2022/07/13 08:43:39;;;;;;;11.37;1.37;;;24.10;90.00;;;24.72;57.46;98651.34;4930728;29;20470;-79
2022/07/13 08:46:09;;;;;;;1.83;1.00;;;24.10;90.00;;;24.77;56.09;98654.03;4932761;29;20860;-78
2022/07/13 08:48:44;;;;;;;1.30;1.10;;;24.10;87.90;;;24.85;56.01;98646.31;4932472;29;20823;-79
2022/07/13 08:51:19;;;;;;;1.60;1.23;;;24.20;88.30;;;24.94;54.20;98644.75;4932492;29;20442;-79
2022/07/13 08:53:48;;;;;;;4.70;0.93;;;24.40;86.90;;;25.02;52.15;98640.75;4932662;29;20459;-78
2022/07/13 08:56:17;;;;;;;1.20;0.90;;;24.40;85.30;;;25.16;50.24;98641.84;4931883;29;20455;-78
2022/07/13 08:58:50;;;;;;;12.10;1.20;;;24.60;83.70;;;25.26;51.10;98641.03;4932441;29;21056;-79
2022/07/13 09:01:20;;;;;;;1.27;0.90;;;24.60;84.80;;;25.36;51.39;98633.81;4931926;29;20854;-79
2022/07/13 09:03:51;;;;;;;1.10;0.90;;;24.70;85.30;;;25.45;49.16;98634.88;4931940;29;20443;-79
2022/07/13 09:06:47;;;;;;;1.20;1.10;;;24.80;82.90;;;25.61;48.89;98637.59;4932028;29;20504;-79
2022/07/13 09:09:32;;;;;;;3.10;1.13;;;25.00;83.00;;;25.71;46.47;98637.56;4931256;29;20506;-79
2022/07/13 09:12:23;;;;;;;1.10;1.00;;;25.10;80.90;;;25.82;46.64;98639.16;4931919;29;20538;-78
2022/07/13 09:14:56;;;;;;;3.17;1.13;;;25.20;80.30;;;25.94;46.40;98636.97;4931629;29;20482;-78
2022/07/13 09:17:36;;;;;;;1.10;1.00;;;25.30;80.20;;;26.02;45.74;98634.56;4930998;29;20510;-78
2022/07/13 09:20:23;;;;;;;2.37;0.90;;;25.50;80.00;;;26.12;45.83;98625.69;4931230;29;20955;-79
2022/07/13 09:23:05;;;;;;;1.70;0.93;;;25.50;79.90;;;26.21;45.84;98632.09;4929246;29;20466;-78
2022/07/13 09:25:37;;;;;;;3.73;1.10;;;25.60;80.20;;;26.27;44.84;98630.22;4932317;29;20458;-78
2022/07/13 09:28:10;;;;;;;1.27;0.93;;;25.60;78.90;;;26.34;45.49;98626.19;4930608;29;20456;-79
2022/07/13 09:30:45;;;;;;;2.00;0.90;;;25.70;80.30;;;26.36;45.06;98624.00;4930141;29;20471;-79
2022/07/13 09:33:32;;;;;;;1.30;1.10;;;25.70;78.70;;;26.38;44.46;98626.44;4931020;29;20466;-78
2022/07/13 09:36:11;;;;;;;1.40;1.00;;;25.60;78.70;;;26.43;45.20;98635.25;4932671;29;20479;-78
2022/07/13 09:38:42;;;;;;;1.10;0.90;;;25.70;79.90;;;26.44;45.64;98639.53;4915770;29;20544;-79
2022/07/13 09:41:23;;;;;;;1.27;1.10;;;25.70;80.60;;;26.46;46.13;98641.94;4931359;29;20469;-79
2022/07/13 09:46:56;;;;;;;1.27;1.07;;;25.70;79.00;;;26.51;45.01;98626.63;4929487;29;20501;-78
2022/07/13 09:49:35;;;;;;;1.23;1.00;;;25.90;79.30;;;26.60;45.43;98631.41;4932245;29;20447;-79
2022/07/13 09:52:08;;;;;;;1.40;1.20;;;25.90;80.10;;;26.68;44.88;98628.16;4930539;29;20933;-78
2022/07/13 09:54:41;;;;;;;1.43;1.03;;;26.00;78.70;;;26.76;45.28;98627.56;4930012;29;20958;-79
2022/07/13 09:57:14;;;;;;;1.33;1.10;;;26.10;80.20;;;26.81;44.38;98636.38;4931207;29;20811;-78
2022/07/13 09:59:46;;;;;;;1.50;1.10;;;26.20;78.80;;;26.85;43.39;98636.66;4929850;29;20557;-79
2022/07/13 10:02:18;;;;;;;3.17;1.20;;;26.20;78.20;;;26.91;43.03;98635.56;4930036;29;20474;-79
2022/07/13 10:04:50;;;;;;;1.33;0.90;;;26.20;77.50;;;26.93;42.27;98641.47;4931641;29;20446;-79
2022/07/13 10:07:21;;;;;;;1.77;1.13;;;26.20;76.70;;;27.00;42.23;98639.28;4930922;29;21128;-79
2022/07/13 10:09:52;;;;;;;1.30;0.97;;;26.40;76.30;;;27.04;40.34;98629.56;4930026;29;20471;-79
2022/07/13 10:12:22;;;;;;;2.13;1.00;;;26.30;73.60;;;27.12;40.63;98625.47;4929000;29;20466;-79
2022/07/13 10:14:53;;;;;;;2.10;1.00;;;26.40;74.70;;;27.17;40.09;98630.81;4931299;29;20758;-79
2022/07/13 10:17:24;;;;;;;1.40;1.10;;;26.40;74.10;;;27.28;41.69;98625.06;4929046;29;20502;-78
2022/07/13 10:20:05;;;;;;;2.10;1.27;;;26.50;75.90;;;27.39;40.73;98631.97;4930302;29;20529;-79
2022/07/13 10:22:45;;;;;;;2.33;1.27;;;26.70;74.60;;;27.45;39.40;98636.28;4928799;29;20490;-78
2022/07/13 10:25:17;;;;;;;1.87;1.10;;;26.80;72.70;;;27.52;40.11;98628.66;4930816;29;20458;-78
2022/07/13 10:28:04;;;;;;;1.20;0.90;;;26.80;74.10;;;27.54;39.94;98625.69;4929003;29;20470;-78
2022/07/13 10:30:35;;;;;;;1.77;1.10;;;26.80;74.90;;;27.59;40.78;98624.88;4930022;29;20486;-79
2022/07/13 10:33:21;;;;;;;2.90;1.00;;;26.90;74.90;;;27.65;40.30;98626.41;4930781;29;20482;-79
2022/07/13 10:35:54;;;;;;;1.60;1.10;;;27.00;73.60;;;27.63;40.48;98617.84;4931788;29;20485;-78
2022/07/13 10:38:27;;;;;;;1.60;0.83;;;26.90;74.40;;;27.66;40.19;98614.59;4929500;29;20542;-78
2022/07/13 10:41:20;;;;;;;2.60;0.97;;;27.00;74.20;;;27.62;40.08;98613.53;4931571;29;20458;-78
2022/07/13 10:43:55;;;;;;;2.17;1.27;;;26.90;74.10;;;27.60;40.46;98613.81;4929661;29;20467;-78